Time;durP1;ratioP1;P1;durP2;ratioP2;P2;SDS_P1;SDS_P2;PMS_P1;PMS_P2;Temp;Humidity;BMP_temperature;BMP_pressure;BME280_temperature;BME280_humidity;BME280_pressure;Samples;Min_cycle;Max_cycle;Signal;HPM_P1;HPM_P2
2021/06/10 00:01:03;;;;;;;17.20;15.52;;;22.10;84.20;;;;;;5019688;28;20040;-61
2021/06/10 00:03:47;;;;;;;16.83;15.23;;;22.00;84.60;;;;;;5017802;28;20080;-60
2021/06/10 00:06:31;;;;;;;17.90;16.20;;;22.00;84.80;;;;;;5013608;28;20121;-61
2021/06/10 00:09:15;;;;;;;17.50;15.90;;;21.90;85.30;;;;;;5015853;28;20041;-61
2021/06/10 00:11:59;;;;;;;19.08;17.15;;;21.90;85.40;;;;;;5015829;28;20112;-61
2021/06/10 00:14:44;;;;;;;;;;;21.90;85.60;;;;;;5016651;28;20444;-61
2021/06/10 00:17:28;;;;;;;20.20;18.20;;;21.70;86.10;;;;;;5015600;28;19921;-62
2021/06/10 00:20:15;;;;;;;19.13;17.23;;;21.70;86.20;;;;;;5028187;28;20037;-62
2021/06/10 00:22:59;;;;;;;18.05;16.08;;;21.70;86.30;;;;;;5015227;28;20036;-61
2021/06/10 00:25:44;;;;;;;16.90;15.23;;;21.70;86.40;;;;;;5016237;28;20092;-61
2021/06/10 00:28:28;;;;;;;17.95;16.17;;;21.70;86.40;;;;;;5026328;28;20084;-61
2021/06/10 00:31:12;;;;;;;19.85;17.92;;;21.80;86.30;;;;;;5018370;28;20095;-61
2021/06/10 00:33:56;;;;;;;18.00;15.88;;;21.80;86.20;;;;;;5015273;28;20041;-61
2021/06/10 00:36:42;;;;;;;17.75;16.25;;;21.70;86.40;;;;;;5024362;28;20110;-61
2021/06/10 00:39:26;;;;;;;19.90;17.88;;;21.70;86.40;;;;;;5014990;28;20101;-61
2021/06/10 00:42:10;;;;;;;21.27;19.27;;;21.80;86.20;;;;;;5015435;28;20382;-61
2021/06/10 00:44:55;;;;;;;20.92;18.92;;;21.70;86.20;;;;;;5020634;28;20092;-62
2021/06/10 00:47:40;;;;;;;21.23;19.23;;;21.70;86.60;;;;;;5015252;28;20036;-61
2021/06/10 00:50:31;;;;;;;22.52;20.45;;;21.70;86.50;;;;;;5017257;28;20049;-62
2021/06/10 00:53:21;;;;;;;21.60;19.50;;;21.70;87.20;;;;;;5012418;28;20036;-61
2021/06/10 00:56:06;;;;;;;20.75;18.50;;;21.70;86.70;;;;;;5013696;28;20044;-61
2021/06/10 00:58:53;;;;;;;;;;;21.80;86.50;;;;;;5010713;28;20033;-61
2021/06/10 01:01:37;;;;;;;52.28;40.85;;;21.70;86.80;;;;;;5014804;28;19916;-62
2021/06/10 01:04:21;;;;;;;23.95;21.35;;;21.70;87.00;;;;;;5014877;28;20041;-62
2021/06/10 01:07:12;;;;;;;21.35;19.25;;;21.70;86.90;;;;;;5030485;28;20446;-62
2021/06/10 01:10:07;;;;;;;23.38;21.08;;;21.60;86.80;;;;;;5015077;28;20516;-60
2021/06/10 01:13:13;;;;;;;22.60;20.60;;;21.50;87.10;;;;;;5027159;28;20400;-62
2021/06/10 01:16:02;;;;;;;21.48;19.58;;;21.40;87.40;;;;;;5013713;28;20029;-60
2021/06/10 01:18:48;;;;;;;22.00;19.92;;;21.20;87.90;;;;;;5013849;28;20084;-61
2021/06/10 01:21:33;;;;;;;21.52;19.45;;;21.20;88.80;;;;;;5014320;28;20021;-61
2021/06/10 01:24:25;;;;;;;21.17;19.15;;;21.10;89.10;;;;;;5014583;28;20071;-60
2021/06/10 01:27:29;;;;;;;23.00;20.90;;;21.10;89.10;;;;;;5014298;28;20028;-61
2021/06/10 01:30:21;;;;;;;22.23;20.20;;;21.00;89.30;;;;;;5016824;28;20045;-61
2021/06/10 01:33:24;;;;;;;22.40;20.40;;;20.90;90.00;;;;;;5014069;28;20520;-60
2021/06/10 01:36:13;;;;;;;21.13;19.13;;;20.80;90.10;;;;;;5014361;28;20195;-61
2021/06/10 01:39:00;;;;;;;21.90;19.83;;;20.80;90.30;;;;;;5014028;28;20444;-61
2021/06/10 01:41:45;;;;;;;22.98;20.75;;;20.80;90.20;;;;;;5013916;28;20073;-61
2021/06/10 01:44:30;;;;;;;;;;;20.70;90.30;;;;;;5030708;28;20032;-60
2021/06/10 01:47:17;;;;;;;22.27;20.20;;;20.70;90.30;;;;;;5033912;28;19920;-60
2021/06/10 01:50:02;;;;;;;22.85;20.80;;;20.60;90.50;;;;;;5033799;28;20095;-61
2021/06/10 01:52:47;;;;;;;24.88;22.48;;;20.60;90.60;;;;;;5033904;28;20036;-61
2021/06/10 01:55:31;;;;;;;;;;;20.30;91.00;;;;;;5034231;28;20037;-61
2021/06/10 01:58:17;;;;;;;25.05;22.75;;;20.10;91.40;;;;;;5032757;28;20284;-62
2021/06/10 02:01:02;;;;;;;23.52;21.13;;;20.00;91.50;;;;;;5033894;28;20028;-61
2021/06/10 02:03:49;;;;;;;23.25;20.95;;;20.00;91.70;;;;;;5032616;28;20041;-61
2021/06/10 02:06:35;;;;;;;23.20;21.00;;;20.00;91.70;;;;;;5029548;28;20168;-60
2021/06/10 02:09:21;;;;;;;23.02;20.73;;;20.10;91.60;;;;;;5013532;28;20113;-60
2021/06/10 02:12:06;;;;;;;23.15;21.05;;;20.10;91.70;;;;;;5014316;28;20117;-61
2021/06/10 02:14:50;;;;;;;23.40;21.23;;;20.10;91.50;;;;;;5013604;28;20145;-60
2021/06/10 02:17:36;;;;;;;22.17;20.17;;;19.90;91.80;;;;;;5013212;28;20033;-61
2021/06/10 02:20:20;;;;;;;;;;;20.00;91.90;;;;;;5014150;28;20112;-61
2021/06/10 02:23:05;;;;;;;22.67;20.40;;;20.00;92.00;;;;;;5013891;28;19912;-61
2021/06/10 02:25:50;;;;;;;22.35;20.13;;;20.10;91.80;;;;;;5022696;28;20585;-60
2021/06/10 02:28:35;;;;;;;22.38;20.35;;;20.20;91.60;;;;;;5031721;28;20091;-60
2021/06/10 02:31:19;;;;;;;23.25;20.90;;;20.20;91.60;;;;;;5032501;28;20041;-61
2021/06/10 02:34:07;;;;;;;23.88;21.55;;;20.00;91.60;;;;;;5033359;28;20397;-61
2021/06/10 02:36:51;;;;;;;23.10;21.00;;;20.00;91.90;;;;;;5033066;28;20047;-62
2021/06/10 02:39:39;;;;;;;22.40;20.30;;;19.90;91.90;;;;;;5030984;28;20040;-60
2021/06/10 02:42:25;;;;;;;24.20;22.05;;;19.90;92.00;;;;;;5031586;28;20053;-61
2021/06/10 02:45:10;;;;;;;25.00;22.60;;;19.80;92.10;;;;;;5019514;28;20095;-61
2021/06/10 02:47:58;;;;;;;22.83;20.73;;;19.80;92.20;;;;;;5012885;28;20036;-61
2021/06/10 02:50:43;;;;;;;24.65;22.10;;;19.90;92.20;;;;;;5012651;28;20037;-61
2021/06/10 02:53:30;;;;;;;23.75;21.30;;;19.80;92.20;;;;;;5013132;28;20079;-61
2021/06/10 02:56:16;;;;;;;24.80;22.50;;;19.80;92.50;;;;;;5013073;28;20084;-61
2021/06/10 02:59:01;;;;;;;24.33;22.02;;;19.70;92.50;;;;;;5011523;28;20037;-61
2021/06/10 03:01:47;;;;;;;24.30;21.98;;;19.70;92.50;;;;;;5013304;28;20492;-62
2021/06/10 03:04:31;;;;;;;24.40;22.05;;;19.80;92.40;;;;;;5013114;28;20045;-63
2021/06/10 03:07:17;;;;;;;23.15;20.95;;;19.80;92.30;;;;;;5012497;28;20176;-62
2021/06/10 03:10:03;;;;;;;25.75;23.17;;;19.80;92.40;;;;;;5012486;28;20433;-61
2021/06/10 03:12:48;;;;;;;24.70;22.30;;;19.70;92.30;;;;;;5014670;28;20041;-62
2021/06/10 03:15:34;;;;;;;23.92;21.45;;;19.60;92.70;;;;;;5022526;28;20033;-62
2021/06/10 03:18:19;;;;;;;23.98;21.48;;;19.60;92.80;;;;;;5051938;28;20116;-62
2021/06/10 03:21:04;;;;;;;27.15;24.42;;;19.70;92.70;;;;;;5052164;28;20039;-62
2021/06/10 03:23:48;;;;;;;25.08;22.58;;;19.70;92.40;;;;;;5052406;28;20102;-62
2021/06/10 03:26:35;;;;;;;23.63;21.25;;;19.70;92.60;;;;;;5035833;28;20105;-62
2021/06/10 03:29:20;;;;;;;22.73;20.60;;;19.70;92.70;;;;;;5044813;28;20210;-62
2021/06/10 03:32:06;;;;;;;22.15;20.08;;;19.70;92.70;;;;;;5012651;28;20079;-61
2021/06/10 03:34:50;;;;;;;22.80;20.63;;;19.80;92.60;;;;;;5012190;28;20443;-62
2021/06/10 03:37:35;;;;;;;;;;;19.90;92.40;;;;;;5012624;28;20036;-61
2021/06/10 03:40:19;;;;;;;24.63;22.17;;;20.00;92.20;;;;;;5012142;28;19931;-61
2021/06/10 03:43:04;;;;;;;20.42;18.50;;;19.90;92.30;;;;;;5012251;28;20052;-61
2021/06/10 03:45:49;;;;;;;22.70;20.52;;;19.70;92.60;;;;;;5038891;28;20112;-61
2021/06/10 03:48:34;;;;;;;24.02;21.73;;;19.70;92.70;;;;;;5051770;28;20044;-62
2021/06/10 03:51:20;;;;;;;21.30;19.25;;;19.70;92.60;;;;;;5051621;28;20082;-61
2021/06/10 03:54:06;;;;;;;25.33;22.90;;;19.80;92.60;;;;;;5051649;28;20036;-60
2021/06/10 03:56:50;;;;;;;23.42;21.13;;;19.80;92.30;;;;;;5052142;28;20056;-61
2021/06/10 03:59:34;;;;;;;23.77;21.55;;;19.80;92.40;;;;;;5051625;28;20051;-61
2021/06/10 04:02:18;;;;;;;24.38;22.15;;;19.80;92.40;;;;;;5052188;28;20736;-61
2021/06/10 04:05:03;;;;;;;24.67;22.35;;;19.80;92.40;;;;;;5051731;28;20048;-61
2021/06/10 04:07:47;;;;;;;23.85;21.70;;;19.80;92.50;;;;;;5037222;28;20087;-61
2021/06/10 04:10:32;;;;;;;26.08;23.45;;;19.90;92.30;;;;;;5031629;28;20036;-60
2021/06/10 04:13:16;;;;;;;24.33;21.90;;;19.90;92.20;;;;;;5030711;28;20037;-61
2021/06/10 04:16:00;;;;;;;;;;;19.80;92.40;;;;;;5032373;28;20061;-60
2021/06/10 04:18:45;;;;;;;26.77;24.15;;;19.70;92.70;;;;;;5031692;28;20419;-61
2021/06/10 04:21:30;;;;;;;26.05;23.45;;;19.60;92.50;;;;;;5011980;28;20044;-62
2021/06/10 04:24:13;;;;;;;25.15;22.67;;;19.50;92.80;;;;;;5011732;28;20088;-61
2021/06/10 04:26:58;;;;;;;23.35;21.13;;;19.60;92.70;;;;;;5031728;28;20043;-62
2021/06/10 04:29:42;;;;;;;24.67;22.10;;;19.60;92.90;;;;;;5031502;28;20524;-61
2021/06/10 04:32:26;;;;;;;;;;;19.50;92.90;;;;;;5032378;28;20072;-62
2021/06/10 04:35:11;;;;;;;26.92;24.33;;;19.60;92.60;;;;;;5031311;28;19920;-61
2021/06/10 04:37:55;;;;;;;27.02;24.48;;;19.40;93.00;;;;;;5028309;28;20190;-61
2021/06/10 04:40:40;;;;;;;27.98;25.27;;;19.30;93.20;;;;;;5013817;28;20036;-61
2021/06/10 04:43:24;;;;;;;25.20;22.75;;;19.40;93.10;;;;;;5039705;28;20075;-61
2021/06/10 04:46:09;;;;;;;26.88;24.20;;;19.50;92.80;;;;;;5011404;28;20103;-62
2021/06/10 04:48:56;;;;;;;25.75;23.30;;;19.50;92.70;;;;;;5011627;28;20040;-61
2021/06/10 04:51:40;;;;;;;29.42;25.70;;;19.50;92.70;;;;;;4997384;28;20629;-61
2021/06/10 04:54:24;;;;;;;27.20;24.38;;;19.40;92.90;;;;;;5014451;28;20538;-62
2021/06/10 04:57:08;;;;;;;26.10;23.23;;;19.50;92.90;;;;;;5014631;28;20238;-61
2021/06/10 04:59:52;;;;;;;26.25;23.70;;;19.60;92.60;;;;;;5015079;28;20398;-61
2021/06/10 05:02:37;;;;;;;24.85;22.55;;;19.70;92.50;;;;;;5015185;28;20617;-63
2021/06/10 05:05:21;;;;;;;24.88;22.45;;;19.90;92.40;;;;;;5015008;28;20045;-62
2021/06/10 05:08:05;;;;;;;;;;;20.00;92.20;;;;;;5015350;28;20113;-62
2021/06/10 05:10:49;;;;;;;39.97;27.05;;;20.10;92.10;;;;;;5015063;28;19921;-61
2021/06/10 05:13:34;;;;;;;29.88;26.17;;;20.00;92.20;;;;;;5032275;28;20041;-61
2021/06/10 05:16:17;;;;;;;32.08;24.85;;;20.10;92.00;;;;;;5033405;28;20083;-61
2021/06/10 05:19:02;;;;;;;29.42;23.55;;;20.20;91.90;;;;;;5034063;28;20137;-63
2021/06/10 05:21:45;;;;;;;34.13;21.85;;;20.30;91.60;;;;;;5035085;28;20114;-61
2021/06/10 05:24:30;;;;;;;26.70;23.48;;;20.40;91.40;;;;;;5035201;28;20037;-61
2021/06/10 05:27:14;;;;;;;34.55;25.48;;;20.20;91.60;;;;;;5015387;28;20413;-62
2021/06/10 05:29:58;;;;;;;25.75;23.10;;;20.20;91.70;;;;;;5019985;28;20036;-63
2021/06/10 05:32:42;;;;;;;30.42;23.73;;;20.10;92.40;;;;;;5034877;28;20507;-62
2021/06/10 05:35:26;;;;;;;49.88;25.13;;;20.30;91.60;;;;;;5034762;28;20037;-60
2021/06/10 05:38:10;;;;;;;49.03;24.80;;;20.40;91.30;;;;;;5033991;28;20095;-61
2021/06/10 05:40:54;;;;;;;35.78;23.08;;;20.50;91.10;;;;;;5035335;28;20056;-62
2021/06/10 05:43:38;;;;;;;;;;;20.50;91.30;;;;;;5034565;28;20559;-62
2021/06/10 05:46:23;;;;;;;43.38;22.23;;;20.40;91.50;;;;;;5014785;28;19917;-62
2021/06/10 05:49:07;;;;;;;34.60;23.90;;;20.50;91.30;;;;;;5014211;28;20552;-63
2021/06/10 05:51:51;;;;;;;26.35;23.65;;;20.70;91.00;;;;;;5014568;28;20080;-61
2021/06/10 05:54:35;;;;;;;22.80;20.30;;;20.50;91.50;;;;;;5014199;28;20029;-61
2021/06/10 05:57:19;;;;;;;24.45;21.00;;;20.50;91.70;;;;;;5013854;28;20033;-61
2021/06/10 06:00:05;;;;;;;25.42;22.38;;;20.80;91.10;;;;;;5014998;28;20079;-62
2021/06/10 06:02:50;;;;;;;37.03;27.45;;;20.90;90.80;;;;;;5013253;28;20528;-62
2021/06/10 06:05:34;;;;;;;25.45;22.13;;;20.90;91.20;;;;;;5014297;28;20048;-62
2021/06/10 06:08:18;;;;;;;;;;;21.10;90.90;;;;;;5014002;28;20441;-61
2021/06/10 06:11:03;;;;;;;36.97;22.15;;;20.90;91.20;;;;;;5013660;28;20411;-61
2021/06/10 06:13:49;;;;;;;29.30;23.58;;;20.90;91.30;;;;;;5013986;28;20033;-61
2021/06/10 06:16:40;;;;;;;25.00;22.35;;;21.00;91.40;;;;;;5013342;28;20091;-61
2021/06/10 06:19:24;;;;;;;24.60;22.38;;;21.00;91.20;;;;;;5014241;28;20068;-60
2021/06/10 06:22:10;;;;;;;22.83;20.52;;;21.10;91.20;;;;;;5014607;28;20189;-60
2021/06/10 06:24:54;;;;;;;21.05;18.98;;;21.10;91.30;;;;;;5016524;28;20052;-60
2021/06/10 06:27:39;;;;;;;27.33;22.40;;;21.40;90.90;;;;;;5033446;28;20045;-61
2021/06/10 06:30:23;;;;;;;23.50;21.05;;;21.40;90.70;;;;;;5032900;28;20120;-61
2021/06/10 06:33:07;;;;;;;28.20;20.50;;;21.60;90.60;;;;;;5031942;28;20033;-60
2021/06/10 06:35:51;;;;;;;26.27;20.55;;;21.80;90.30;;;;;;5022981;28;20032;-61
2021/06/10 06:38:36;;;;;;;28.83;21.23;;;21.80;90.00;;;;;;5021251;28;20405;-61
2021/06/10 06:41:20;;;;;;;22.65;20.55;;;21.70;90.30;;;;;;5012223;28;20049;-61
2021/06/10 06:44:04;;;;;;;26.00;20.58;;;21.50;90.30;;;;;;5015744;28;20063;-61
2021/06/10 06:46:48;;;;;;;;;;;21.70;90.20;;;;;;5013625;28;20037;-62
2021/06/10 06:49:32;;;;;;;22.30;20.10;;;21.80;90.00;;;;;;5012386;28;19920;-61
2021/06/10 06:52:16;;;;;;;19.80;17.77;;;22.00;89.70;;;;;;5013439;28;20119;-62
2021/06/10 06:55:00;;;;;;;23.60;18.98;;;22.10;89.20;;;;;;5013261;28;20032;-61
2021/06/10 06:57:44;;;;;;;45.22;20.90;;;22.30;88.70;;;;;;5012810;28;20061;-61
2021/06/10 07:00:29;;;;;;;21.85;17.83;;;22.30;88.20;;;;;;5012570;28;20839;-62
2021/06/10 07:03:13;;;;;;;17.65;15.95;;;22.50;87.80;;;;;;5012427;28;20063;-61
2021/06/10 07:05:57;;;;;;;22.52;17.63;;;22.70;86.00;;;;;;5012697;28;20032;-61
2021/06/10 07:08:41;;;;;;;22.52;17.33;;;22.70;86.00;;;;;;5025237;28;20041;-61
2021/06/10 07:11:25;;;;;;;;;;;22.70;86.10;;;;;;5032379;28;20040;-61
2021/06/10 07:14:10;;;;;;;17.03;15.53;;;22.80;84.50;;;;;;5032524;28;19956;-61
2021/06/10 07:16:54;;;;;;;18.23;16.30;;;23.00;84.60;;;;;;5014205;28;20109;-62
2021/06/10 07:19:38;;;;;;;16.73;14.82;;;23.00;84.60;;;;;;5011840;28;20080;-62
2021/06/10 07:22:23;;;;;;;16.65;15.05;;;23.00;84.10;;;;;;5011556;28;20049;-62
2021/06/10 07:25:08;;;;;;;19.15;14.82;;;23.20;83.70;;;;;;5013225;28;20033;-62
2021/06/10 07:27:53;;;;;;;19.20;16.27;;;23.30;83.60;;;;;;5011231;28;20675;-63
2021/06/10 07:30:37;;;;;;;17.83;16.00;;;23.30;83.40;;;;;;5021547;28;20036;-63
2021/06/10 07:33:21;;;;;;;18.85;15.75;;;23.40;83.30;;;;;;5012473;28;20044;-63
2021/06/10 07:36:08;;;;;;;36.45;18.08;;;23.30;84.10;;;;;;5012371;28;20477;-62
2021/06/10 07:38:52;;;;;;;30.50;17.17;;;23.30;84.60;;;;;;5010965;28;20095;-62
2021/06/10 07:41:38;;;;;;;16.40;14.80;;;23.00;85.10;;;;;;5030436;28;20036;-62
2021/06/10 07:44:22;;;;;;;23.70;16.80;;;23.20;84.00;;;;;;5031395;28;20039;-60
2021/06/10 07:47:06;;;;;;;16.05;14.43;;;23.30;84.00;;;;;;5019527;28;20162;-60
2021/06/10 07:49:50;;;;;;;16.92;15.27;;;23.40;84.10;;;;;;5012018;28;20044;-60
2021/06/10 07:52:35;;;;;;;15.82;14.50;;;23.60;82.20;;;;;;5012410;28;20032;-60
2021/06/10 07:55:20;;;;;;;16.33;14.82;;;23.80;80.90;;;;;;5011988;28;20037;-61
2021/06/10 07:58:04;;;;;;;15.13;13.57;;;24.00;80.10;;;;;;5010803;28;20037;-61
2021/06/10 08:00:48;;;;;;;16.00;14.55;;;24.00;80.00;;;;;;5021350;28;20083;-61
2021/06/10 08:03:32;;;;;;;16.27;13.95;;;24.20;79.50;;;;;;5022497;28;20041;-61
2021/06/10 08:06:16;;;;;;;14.25;13.07;;;24.30;79.20;;;;;;5027730;28;20547;-61
2021/06/10 08:09:02;;;;;;;15.77;14.35;;;24.50;79.00;;;;;;5017964;28;20091;-61
2021/06/10 08:11:46;;;;;;;18.38;14.68;;;24.40;79.90;;;;;;5012052;28;20037;-61
2021/06/10 08:14:30;;;;;;;16.27;14.70;;;24.40;81.00;;;;;;5011960;28;20037;-60
2021/06/10 08:17:15;;;;;;;15.18;13.82;;;24.60;80.50;;;;;;5011839;28;20044;-59
2021/06/10 08:19:59;;;;;;;13.00;11.80;;;24.50;79.40;;;;;;5011980;28;20045;-60
2021/06/10 08:22:43;;;;;;;11.93;10.88;;;24.70;75.90;;;;;;5012067;28;20041;-60
2021/06/10 08:25:29;;;;;;;12.70;11.48;;;24.50;74.60;;;;;;5027057;28;20428;-61
2021/06/10 08:28:13;;;;;;;12.13;11.07;;;24.60;74.60;;;;;;5032656;28;20103;-60
2021/06/10 08:30:58;;;;;;;13.02;11.77;;;24.90;74.70;;;;;;5030021;28;20066;-61
2021/06/10 08:33:43;;;;;;;12.90;11.80;;;25.00;74.30;;;;;;5024067;28;20520;-58
2021/06/10 08:36:27;;;;;;;13.57;12.13;;;25.00;74.70;;;;;;5032737;28;20071;-60
2021/06/10 08:39:11;;;;;;;;;;;25.10;74.50;;;;;;5034529;28;20036;-61
2021/06/10 08:41:56;;;;;;;13.57;11.53;;;25.20;74.00;;;;;;5029404;28;19959;-60
2021/06/10 08:44:40;;;;;;;12.50;11.43;;;24.90;73.10;;;;;;5034991;28;20036;-60
2021/06/10 08:47:26;;;;;;;11.82;10.63;;;25.10;72.40;;;;;;5020390;28;20079;-59
2021/06/10 08:50:14;;;;;;;11.18;10.10;;;25.20;72.50;;;;;;5014909;28;20152;-61
2021/06/10 08:52:59;;;;;;;20.90;11.95;;;25.30;71.50;;;;;;5015351;28;20072;-60
2021/06/10 08:55:43;;;;;;;11.15;10.05;;;25.30;72.10;;;;;;5014908;28;20041;-61
2021/06/10 08:58:29;;;;;;;12.50;11.20;;;25.50;70.60;;;;;;5014753;28;20032;-60
2021/06/10 09:01:15;;;;;;;12.30;10.98;;;25.80;70.50;;;;;;5014888;28;20096;-61
2021/06/10 09:03:59;;;;;;;11.65;10.55;;;25.80;70.30;;;;;;5014950;28;20092;-61
2021/06/10 09:06:53;;;;;;;25.17;12.90;;;26.00;69.40;;;;;;5014741;28;20036;-60
2021/06/10 09:09:39;;;;;;;25.92;13.38;;;25.70;71.30;;;;;;5013638;28;20041;-61
2021/06/10 09:12:23;;;;;;;12.98;11.55;;;25.90;70.90;;;;;;5014800;28;20127;-61
2021/06/10 09:15:10;;;;;;;13.32;11.90;;;26.10;70.20;;;;;;5017188;28;20025;-60
2021/06/10 09:17:55;;;;;;;12.73;11.45;;;26.00;70.60;;;;;;5021911;28;20041;-60
2021/06/10 09:20:45;;;;;;;13.32;11.35;;;25.90;70.60;;;;;;5014557;28;20084;-61
2021/06/10 09:23:30;;;;;;;14.23;12.40;;;25.80;70.50;;;;;;5015939;28;20037;-61
2021/06/10 09:26:16;;;;;;;13.02;11.82;;;26.10;70.70;;;;;;5017685;28;20033;-61
2021/06/10 09:29:04;;;;;;;12.75;11.63;;;25.80;70.60;;;;;;5026014;28;20048;-61
2021/06/10 09:31:48;;;;;;;13.55;12.27;;;25.90;70.80;;;;;;5028875;28;20036;-61
2021/06/10 09:34:45;;;;;;;12.40;11.13;;;26.10;70.40;;;;;;5029411;28;20462;-61
2021/06/10 09:37:38;;;;;;;14.68;13.18;;;26.40;69.50;;;;;;5031426;28;20036;-61
2021/06/10 09:40:23;;;;;;;13.40;12.07;;;26.20;68.80;;;;;;5022666;28;20036;-61
2021/06/10 09:43:09;;;;;;;11.55;10.55;;;26.30;68.80;;;;;;5016866;28;20417;-61
2021/06/10 09:45:58;;;;;;;12.85;11.63;;;26.50;68.90;;;;;;5020580;28;20048;-61
2021/06/10 09:48:42;;;;;;;13.15;12.02;;;26.40;69.10;;;;;;5033670;28;20041;-61
2021/06/10 09:51:26;;;;;;;14.70;13.27;;;26.40;68.70;;;;;;5034162;28;20095;-61
2021/06/10 09:54:11;;;;;;;15.00;13.68;;;26.00;68.80;;;;;;5042983;28;20037;-59
2021/06/10 09:57:01;;;;;;;18.38;16.70;;;25.70;69.50;;;;;;5038110;28;20512;-58
2021/06/10 09:59:47;;;;;;;13.20;12.10;;;25.50;70.20;;;;;;5013634;28;20052;-61
2021/06/10 10:02:32;;;;;;;13.98;12.68;;;25.50;70.50;;;;;;5014231;28;20096;-60
2021/06/10 10:05:22;;;;;;;15.65;14.25;;;25.70;70.50;;;;;;5013669;28;20039;-60
2021/06/10 10:08:13;;;;;;;14.75;13.40;;;25.90;69.90;;;;;;5031366;28;20033;-61
2021/06/10 10:11:00;;;;;;;14.02;12.73;;;25.90;69.30;;;;;;5021999;28;20045;-61
2021/06/10 10:13:50;;;;;;;17.70;12.95;;;26.00;69.00;;;;;;5016469;28;20069;-63
2021/06/10 10:16:35;;;;;;;24.50;13.35;;;25.70;71.70;;;;;;5014083;28;20028;-60
2021/06/10 10:19:20;;;;;;;13.98;12.57;;;24.80;74.70;;;;;;5013695;28;20557;-60
2021/06/10 10:22:10;;;;;;;16.30;11.70;;;24.40;76.10;;;;;;5020925;28;20052;-61
2021/06/10 10:24:54;;;;;;;12.07;10.98;;;24.10;75.50;;;;;;5034408;28;20037;-62
2021/06/10 10:27:38;;;;;;;12.63;11.43;;;24.00;76.50;;;;;;5037887;28;20158;-63
2021/06/10 10:30:23;;;;;;;11.23;10.18;;;24.00;76.10;;;;;;5032980;28;20033;-60
2021/06/10 10:33:15;;;;;;;12.77;10.50;;;24.10;74.60;;;;;;5019032;28;20457;-61
2021/06/10 10:36:03;;;;;;;11.85;8.43;;;24.30;73.30;;;;;;5037241;28;20044;-61
2021/06/10 10:39:03;;;;;;;9.52;8.63;;;24.50;72.40;;;;;;5036940;28;20037;-60
2021/06/10 10:41:51;;;;;;;9.35;8.45;;;24.50;73.00;;;;;;5015770;28;20033;-61
2021/06/10 10:44:36;;;;;;;9.75;8.75;;;24.60;71.60;;;;;;5026421;28;20103;-61
2021/06/10 10:47:20;;;;;;;8.43;7.68;;;24.50;71.20;;;;;;5023071;28;20516;-60
2021/06/10 10:50:05;;;;;;;9.75;8.82;;;24.70;70.30;;;;;;5019622;28;20033;-62
2021/06/10 10:52:55;;;;;;;8.85;7.95;;;24.90;69.60;;;;;;5013787;28;20065;-61
2021/06/10 10:55:41;;;;;;;9.77;8.82;;;24.90;69.60;;;;;;5032724;28;20033;-61
2021/06/10 10:58:25;;;;;;;13.10;10.30;;;24.70;70.30;;;;;;5023300;28;20588;-62
2021/06/10 11:01:10;;;;;;;43.60;13.88;;;24.80;70.70;;;;;;5026729;28;20059;-62
2021/06/10 11:03:54;;;;;;;38.45;11.75;;;25.10;70.20;;;;;;5033332;28;20099;-61
2021/06/10 11:06:39;;;;;;;14.15;11.50;;;25.20;70.70;;;;;;5015387;28;20125;-61
2021/06/10 11:09:42;;;;;;;11.82;10.70;;;25.30;71.00;;;;;;5012695;28;20055;-61
2021/06/10 11:12:44;;;;;;;31.90;11.48;;;25.40;70.80;;;;;;5011958;28;20036;-61
2021/06/10 11:15:37;;;;;;;11.57;9.90;;;25.60;71.40;;;;;;5031127;28;20028;-61
2021/06/10 11:18:40;;;;;;;39.83;12.13;;;25.60;69.50;;;;;;5011405;28;20072;-61
2021/06/10 11:21:40;;;;;;;15.60;7.40;;;25.40;67.70;;;;;;5051878;28;20031;-60
2021/06/10 11:24:24;;;;;;;28.35;8.15;;;25.20;67.50;;;;;;5052179;28;20039;-62
2021/06/10 11:27:08;;;;;;;12.35;6.85;;;25.30;66.80;;;;;;5012565;28;20036;-60
2021/06/10 11:30:27;;;;;;;15.52;7.03;;;25.40;66.50;;;;;;5012277;28;20060;-61
2021/06/10 11:33:12;;;;;;;11.30;7.63;;;25.70;66.10;;;;;;5023505;28;20440;-61
2021/06/10 11:36:07;;;;;;;9.57;8.68;;;25.70;65.40;;;;;;5031659;28;20083;-60
2021/06/10 11:38:52;;;;;;;8.60;7.90;;;25.30;67.90;;;;;;5018386;28;20033;-61
2021/06/10 11:41:35;;;;;;;;;;;25.50;67.80;;;;;;5022092;28;20061;-61
2021/06/10 11:44:20;;;;;;;13.65;8.55;;;25.40;69.40;;;;;;5012985;28;19956;-62
2021/06/10 11:47:26;;;;;;;19.35;9.23;;;25.40;69.00;;;;;;5016156;28;20049;-61
2021/06/10 11:50:47;;;;;;;25.88;10.85;;;25.50;69.50;;;;;;5012308;28;20033;-61
2021/06/10 11:53:32;;;;;;;12.57;9.77;;;25.60;69.00;;;;;;5002252;28;20520;-60
2021/06/10 11:56:26;;;;;;;21.08;11.02;;;25.40;70.30;;;;;;5012097;28;20088;-59
2021/06/10 11:59:19;;;;;;;28.63;12.32;;;25.40;70.50;;;;;;5017296;28;20071;-61
2021/06/10 12:02:09;;;;;;;19.60;11.80;;;25.40;71.60;;;;;;5035351;28;20044;-63
2021/06/10 12:05:07;;;;;;;13.55;11.90;;;25.10;74.30;;;;;;5029142;28;20106;-67
2021/06/10 12:08:12;;;;;;;18.60;12.60;;;24.60;77.90;;;;;;5015580;28;20097;-66
2021/06/10 12:11:06;;;;;;;14.30;12.95;;;24.40;79.50;;;;;;5015883;28;20116;-65
2021/06/10 12:13:52;;;;;;;19.00;12.82;;;24.50;81.80;;;;;;5015926;28;20064;-66
2021/06/10 12:16:36;;;;;;;21.33;12.95;;;24.70;80.50;;;;;;5016149;28;20029;-65
2021/06/10 12:19:20;;;;;;;14.50;13.13;;;25.00;79.80;;;;;;5015846;28;20057;-63
2021/06/10 12:22:04;;;;;;;13.88;12.43;;;25.10;78.60;;;;;;5015190;28;20037;-64
2021/06/10 12:24:48;;;;;;;13.02;11.82;;;25.30;76.60;;;;;;5016042;28;20408;-63
2021/06/10 12:27:35;;;;;;;14.27;12.05;;;25.50;76.10;;;;;;5014606;28;20452;-64
2021/06/10 12:30:49;;;;;;;13.77;12.48;;;25.60;76.40;;;;;;5015563;28;20044;-63
2021/06/10 12:33:35;;;;;;;13.27;12.00;;;25.40;78.60;;;;;;5009108;28;20092;-61
2021/06/10 12:36:25;;;;;;;12.32;11.10;;;25.40;77.20;;;;;;5031255;28;20100;-61
2021/06/10 12:39:15;;;;;;;13.00;11.63;;;25.60;75.00;;;;;;5033710;28;20029;-62
2021/06/10 12:42:12;;;;;;;12.15;10.70;;;26.10;71.90;;;;;;5027951;28;20659;-63
2021/06/10 12:44:56;;;;;;;12.52;11.23;;;26.30;70.60;;;;;;5015161;28;20058;-63
2021/06/10 12:47:43;;;;;;;13.65;10.80;;;26.50;70.10;;;;;;5013086;28;20464;-61
2021/06/10 12:50:29;;;;;;;12.05;10.35;;;26.90;69.60;;;;;;5014962;28;20037;-62
2021/06/10 12:53:16;;;;;;;11.98;10.40;;;27.20;69.40;;;;;;5016824;28;20073;-65
2021/06/10 12:56:10;;;;;;;11.95;9.70;;;27.40;67.10;;;;;;5034960;28;20068;-62
2021/06/10 12:58:54;;;;;;;10.57;9.52;;;27.30;68.50;;;;;;5034798;28;20036;-64
2021/06/10 13:02:08;;;;;;;10.80;9.82;;;27.30;67.50;;;;;;5049839;28;20044;-63
2021/06/10 13:04:55;;;;;;;10.90;9.90;;;27.30;66.40;;;;;;5054618;28;20079;-60
2021/06/10 13:07:44;;;;;;;12.90;10.27;;;27.10;66.10;;;;;;5054416;28;20040;-63
2021/06/10 13:10:43;;;;;;;11.40;10.20;;;26.90;66.60;;;;;;5054375;28;20461;-62
2021/06/10 13:13:34;;;;;;;16.55;9.95;;;27.10;67.00;;;;;;5046659;28;20505;-61
2021/06/10 13:16:19;;;;;;;13.18;9.52;;;27.50;66.20;;;;;;5015711;28;20389;-62
2021/06/10 13:19:22;;;;;;;10.63;9.55;;;27.60;66.20;;;;;;5000587;28;20082;-62
2021/06/10 13:22:08;;;;;;;9.70;8.90;;;27.40;66.80;;;;;;5015687;28;20456;-63
2021/06/10 13:24:52;;;;;;;12.02;9.40;;;27.00;67.50;;;;;;5018198;28;20041;-62
2021/06/10 13:27:39;;;;;;;9.70;8.38;;;27.00;66.10;;;;;;5020111;28;20495;-62
2021/06/10 13:30:23;;;;;;;9.55;8.65;;;26.90;65.70;;;;;;5018610;28;20077;-63
2021/06/10 13:35:48;;;;;;;16.30;9.13;;;27.20;64.70;;;;;;5113426;27;20356;-61
2021/06/10 13:38:34;;;;;;;11.55;8.93;;;27.50;65.30;;;;;;5089825;28;20089;-61
2021/06/10 13:41:21;;;;;;;10.15;9.15;;;27.80;64.40;;;;;;5099048;28;20039;-61
2021/06/10 13:44:10;;;;;;;9.77;8.77;;;27.00;64.80;;;;;;5109530;28;20118;-58
2021/06/10 13:46:56;;;;;;;10.68;8.75;;;27.60;64.70;;;;;;5109647;28;20072;-59
2021/06/10 13:49:41;;;;;;;9.43;8.30;;;27.70;65.30;;;;;;5109570;28;20066;-60
2021/06/10 13:52:25;;;;;;;10.55;9.48;;;27.90;64.80;;;;;;5109700;28;20047;-58
2021/06/10 13:55:09;;;;;;;10.02;9.10;;;27.70;66.10;;;;;;5109635;28;20057;-60
2021/06/10 13:57:53;;;;;;;9.93;8.88;;;27.20;66.70;;;;;;5108361;28;20043;-58
2021/06/10 14:00:38;;;;;;;9.93;9.10;;;27.30;65.80;;;;;;5109549;28;20088;-58
2021/06/10 14:03:22;;;;;;;9.60;8.60;;;26.90;66.30;;;;;;5109144;28;20085;-60
2021/06/10 14:06:06;;;;;;;9.48;8.52;;;27.00;66.80;;;;;;5109330;28;20042;-61
2021/06/10 14:08:50;;;;;;;15.60;10.07;;;27.80;66.50;;;;;;5109354;28;20089;-59
2021/06/10 14:11:34;;;;;;;11.55;10.55;;;28.00;66.50;;;;;;5109141;28;20081;-58
2021/06/10 14:14:18;;;;;;;;;;;27.80;66.60;;;;;;5098372;28;20039;-58